• Join FlightAware (Why Join?)
  • Login
  • US Flag 
09:21AM EST


 

Airport Tracker/Info


-or-


 

Live Flight TrackerFlight Track Log ✈ SKW4730 ✈ 21-Jul-2013 ✈ KLGB - KSLC

Flight Track Log - Related Links

Times and Time Zones

All times are in EDT time to prevent confusion due to time zone crossing. See the SKW4730 flight status page for this flight to view local times or setup timezone preferences in your user account.

Time Position Orientation Groundspeed Altitude Reporting Facility
EDT Latitude Longitude Course Direction KTS MPH feet Rate Location/Type
04:07PM 33.8500 -118.1833 15° North 177 204 1,400  Level Southern California TRACON
04:08PM 33.8500 -118.2500 270° West 243 280 3,500 2,280 Climbing Southern California TRACON
04:09PM 33.7875 -118.2606 188° South 223 257 6,700 2,160 Climbing Los Angeles Center
04:10PM 33.7181 -118.2675 185° South 241 277 8,500 1,740 Climbing Los Angeles Center
04:11PM 33.7824 -117.9755 23° Northeast  Level FlightAware Approximate
04:11PM 33.6514 -118.2314 156° South 287 330 10,400  Level Los Angeles Center
04:12PM 33.8958 -117.9236 15° North  Level FlightAware Approximate
04:12PM 33.6775 -118.1494 69° East 288 331 13,000  Level Los Angeles Center
04:13PM 33.7503 -118.0825 37° Northeast 278 320 15,700 2,160 Climbing Los Angeles Center
04:14PM 33.8183 -118.0217 37° Northeast 302 348 17,500 1,560 Climbing Los Angeles Center
04:16PM 33.8911 -117.9575 36° Northeast 321 369 19,000 1,260 Climbing Los Angeles Center
04:17PM 33.9642 -117.8914 37° Northeast 330 380 20,200 1,320 Climbing Los Angeles Center
04:18PM 34.0403 -117.8225 37° Northeast 341 392 21,800 1,560 Climbing Los Angeles Center
04:19PM 34.1272 -117.7267 42° Northeast 352 405 23,500 1,560 Climbing Los Angeles Center
04:20PM 34.1936 -117.6358 49° Northeast 362 417 25,100 1,380 Climbing Los Angeles Center
04:21PM 34.2622 -117.5419 49° Northeast 371 427 26,400 1,260 Climbing Los Angeles Center
04:22PM 34.3319 -117.4475 48° Northeast 376 433 27,800 1,200 Climbing Los Angeles Center
04:23PM 34.4053 -117.3464 49° Northeast 384 442 29,000 1,080 Climbing Los Angeles Center
04:24PM 34.4783 -117.2464 48° Northeast 396 456 30,100 960 Climbing Los Angeles Center
04:25PM 34.5522 -117.1447 49° Northeast 403 464 31,100 1,080 Climbing Los Angeles Center
04:26PM 34.6414 -117.0219 49° Northeast 405 466 32,400 1,140 Climbing Los Angeles Center
04:27PM 34.7150 -116.9183 49° Northeast 406 467 33,500 960 Climbing Los Angeles Center
04:28PM 34.7906 -116.8142 49° Northeast 411 473 34,400 720 Climbing Los Angeles Center
04:29PM 34.8661 -116.7097 49° Northeast 412 474 35,000 240 Climbing Los Angeles Center
04:30PM 34.9444 -116.5994 49° Northeast 431 496 35,000  Level Los Angeles Center
04:31PM 35.0492 -116.4644 47° Northeast 455 524 35,000  Level Los Angeles Center
04:32PM 35.1375 -116.3561 45° Northeast 454 522 35,000  Level Los Angeles Center
04:33PM 35.2258 -116.2456 46° Northeast 454 522 35,000  Level Los Angeles Center
04:34PM 35.3119 -116.1350 46° Northeast 453 521 35,000  Level Los Angeles Center
04:35PM 35.3992 -116.0244 46° Northeast 452 520 35,000  Level Los Angeles Center
04:36PM 35.5064 -115.8936 45° Northeast 454 522 35,000  Level Los Angeles Center
04:37PM 35.6011 -115.7961 40° Northeast 446 513 35,000  Level Los Angeles Center
04:38PM 35.7031 -115.7089 35° Northeast 445 512 35,000  Level Los Angeles Center
04:39PM 35.8064 -115.6228 34° Northeast 449 517 35,000  Level Los Angeles Center
04:40PM 35.9089 -115.5358 34° Northeast 449 517 35,000  Level Los Angeles Center
04:41PM 36.0311 -115.4328 34° Northeast 446 513 35,000  Level Los Angeles Center
04:42PM 36.1322 -115.3456 35° Northeast 448 516 35,000  Level Los Angeles Center
04:43PM 36.2344 -115.2600 34° Northeast 449 517 35,000  Level Los Angeles Center
04:44PM 36.3350 -115.1725 35° Northeast 448 516 35,000  Level Los Angeles Center
04:46PM 36.4369 -115.0853 35° Northeast 449 517 35,000  Level Los Angeles Center
04:47PM 36.5592 -114.9808 34° Northeast 447 514 35,000  Level Los Angeles Center
04:48PM 36.6619 -114.8928 34° Northeast 449 517 35,000  Level Los Angeles Center
04:49PM 36.7650 -114.8039 35° Northeast 451 519 35,000  Level Los Angeles Center
04:50PM 36.8789 -114.7067 34° Northeast 449 517 35,000  Level Los Angeles Center
04:51PM 36.9819 -114.6164 35° Northeast 449 517 35,000  Level Los Angeles Center
04:52PM 37.0731 -114.5367 35° Northeast 449 517 35,000  Level Los Angeles Center
04:53PM 37.1964 -114.4292 35° Northeast 450 518 35,000  Level Los Angeles Center
04:54PM 37.2989 -114.3392 35° Northeast 450 518 35,000  Level Los Angeles Center
04:55PM 37.3939 -114.2561 35° Northeast 452 520 35,000  Level Los Angeles Center
04:56PM 37.5164 -114.1464 35° Northeast 451 519 35,000  Level Los Angeles Center
04:57PM 37.6197 -114.0539 35° Northeast 453 521 35,000  Level Los Angeles Center
04:58PM 37.7228 -113.9617 35° Northeast 452 520 35,000  Level Los Angeles Center
04:59PM 37.8264 -113.8697 35° Northeast 452 520 35,000  Level Los Angeles Center
05:00PM 37.9489 -113.7581 36° Northeast 452 520 35,000  Level Salt Lake Center
05:01PM 38.0522 -113.6636 36° Northeast 455 524 35,000  Level Salt Lake Center
05:02PM 38.1572 -113.5681 36° Northeast 461 531 35,000  Level Salt Lake Center
05:03PM 38.2617 -113.4728 36° Northeast 461 531 35,000  Level Salt Lake Center
05:04PM 38.3667 -113.3781 35° Northeast 461 531 35,000 -300 Level Salt Lake Center
05:05PM 38.4925 -113.2622 36° Northeast 464 534 34,500 -660 Descending Salt Lake Center
05:06PM 38.5967 -113.1647 36° Northeast 464 534 33,700 -780 Descending Salt Lake Center
05:07PM 38.6989 -113.0694 36° Northeast 458 527 32,900 -1,020 Descending Salt Lake Center
05:08PM 38.8028 -112.9744 35° Northeast 458 527 31,600 -960 Descending Salt Lake Center
05:09PM 38.9081 -112.8781 35° Northeast 464 534 31,000 -300 Descending Salt Lake Center
05:10PM 39.0117 -112.7803 36° Northeast 464 534 31,000  Level Salt Lake Center
05:12PM 39.1172 -112.6806 36° Northeast 470 541 31,000  Level Salt Lake Center
05:13PM 39.2436 -112.5683 35° Northeast 478 550 31,000 -1,560 Level Salt Lake Center
05:14PM 39.3617 -112.5011 24° Northeast 470 541 27,800 -3,120 Descending Salt Lake Center
05:15PM 39.4775 -112.4350 24° Northeast 459 528 24,600 -3,120 Descending Salt Lake Center
05:16PM 39.5900 -112.3656 25° Northeast 448 516 21,400 -3,480 Descending Salt Lake Center
05:17PM 39.7192 -112.2861 25° Northeast 430 495 17,500 -3,120 Descending Salt Lake Center
05:18PM 39.8217 -112.2233 25° Northeast 410 472 15,000 -1,260 Descending Salt Lake Center
05:19PM 39.9103 -112.1683 25° Northeast 342 394 15,000  Level Salt Lake Center
05:20PM 39.9944 -112.1161 25° Northeast 338 389 15,000 -540 Level Salt Lake Center
05:21PM 40.0819 -112.0614 26° Northeast 350 403 13,900 -1,020 Descending Salt Lake Center
05:22PM 40.1642 -112.0114 25° Northeast 324 373 12,900 -1,200 Descending Salt Lake Center
05:23PM 40.2608 -111.9508 26° Northeast 317 365 11,400 -1,140 Descending Salt Lake Center
05:24PM 40.3472 -111.9333 North 315 362 10,600 -660 Descending Salt Lake Center
05:25PM 40.4306 -111.9331 360° North 300 345 10,100 -660 Descending Salt Lake Center
05:26PM 40.5108 -111.9469 353° North 292 336 9,300 -1,020 Descending Salt Lake Center
05:27PM 40.5858 -111.9533 356° North 268 308 8,100 -1,200 Descending Salt Lake Center